createdAt,value
2023-01-25T00:06:07.836Z,102385.33
2023-01-25T00:08:36.311Z,102386.98
2023-01-25T00:11:05.111Z,102386.29
2023-01-25T00:13:33.787Z,102387.33
2023-01-25T00:16:03.118Z,102387.84
2023-01-25T00:18:31.696Z,102391.81
2023-01-25T00:21:00.050Z,102394.39
2023-01-25T00:23:28.355Z,102389.04
2023-01-25T00:25:58.736Z,102388.70
2023-01-25T00:28:27.436Z,102392.84
2023-01-25T00:31:02.780Z,102393.21
2023-01-25T00:33:37.715Z,102391.14
2023-01-25T00:36:37.641Z,102385.95
2023-01-25T00:39:06.522Z,102379.04
2023-01-25T00:41:34.705Z,102377.32
2023-01-25T00:44:03.076Z,102377.98
2023-01-25T00:46:31.766Z,102370.69
2023-01-25T00:48:59.957Z,102369.77
2023-01-25T00:51:28.415Z,102372.84
2023-01-25T00:53:57.013Z,102372.61
2023-01-25T00:56:25.697Z,102367.57
2023-01-25T00:58:54.083Z,102362.38
2023-01-25T01:01:22.494Z,102356.30
2023-01-25T01:03:52.063Z,102355.25
2023-01-25T01:06:20.499Z,102351.64
2023-01-25T01:08:49.116Z,102353.23
2023-01-25T01:11:17.806Z,102352.41
2023-01-25T01:13:46.079Z,102361.78
2023-01-25T01:16:14.374Z,102355.81
2023-01-25T01:18:44.207Z,102353.23
2023-01-25T01:21:13.055Z,102350.82
2023-01-25T01:23:41.446Z,102348.77
2023-01-25T01:26:12.693Z,102355.51
2023-01-25T01:28:40.945Z,102352.20
2023-01-25T01:31:12.308Z,102352.31
2023-01-25T01:33:43.357Z,102348.31
2023-01-25T01:36:14.249Z,102353.80
2023-01-25T01:38:42.768Z,102352.77
2023-01-25T01:41:11.877Z,102350.72
2023-01-25T01:43:40.658Z,102347.48
2023-01-25T01:46:45.792Z,102347.85
2023-01-25T01:49:18.990Z,102347.17
2023-01-25T01:52:03.274Z,102342.20
2023-01-25T01:54:41.139Z,102342.58
2023-01-25T01:57:15.968Z,102343.29
2023-01-25T02:00:03.399Z,102343.28
2023-01-25T02:02:41.334Z,102339.45
2023-01-25T02:05:17.999Z,102339.92
2023-01-25T02:07:47.483Z,102334.85
2023-01-25T02:10:15.955Z,102335.13
2023-01-25T02:12:45.972Z,102334.73
2023-01-25T02:15:14.559Z,102330.05
2023-01-25T02:17:42.958Z,102328.16
2023-01-25T02:20:45.665Z,102325.23
2023-01-25T02:23:17.948Z,102324.40
2023-01-25T02:25:46.675Z,102329.13
2023-01-25T02:28:25.415Z,102330.03
2023-01-25T02:30:53.830Z,102322.64
2023-01-25T02:33:26.353Z,102314.70
2023-01-25T02:36:07.422Z,102313.80
2023-01-25T02:38:43.595Z,102315.02
2023-01-25T02:41:26.197Z,102313.64
2023-01-25T02:43:54.786Z,102312.62
2023-01-25T02:46:27.901Z,102318.35
2023-01-25T02:48:56.569Z,102313.02
2023-01-25T02:51:26.177Z,102313.21
2023-01-25T02:53:56.243Z,102315.84
2023-01-25T02:56:24.669Z,102317.24
2023-01-25T02:58:53.149Z,102320.71
2023-01-25T03:01:21.692Z,102321.42
2023-01-25T03:55:39.622Z,102324.87
2023-01-25T03:58:08.914Z,102330.83
2023-01-25T04:00:37.435Z,102332.21
2023-01-25T04:03:05.948Z,102330.16
2023-01-25T04:05:34.944Z,102325.52
2023-01-25T04:08:03.476Z,102322.77
2023-01-25T04:10:37.728Z,102324.85
2023-01-25T04:13:06.347Z,102330.02
2023-01-25T04:15:35.734Z,102334.52
2023-01-25T04:18:10.269Z,102340.21
2023-01-25T04:20:38.931Z,102334.89
2023-01-25T04:23:07.875Z,102335.45
2023-01-25T04:25:38.401Z,102333.42
2023-01-25T04:28:10.637Z,102331.58
2023-01-25T04:30:41.951Z,102328.81
2023-01-25T04:33:11.997Z,102328.28
2023-01-25T04:35:40.937Z,102327.92
2023-01-25T04:38:10.000Z,102327.39
2023-01-25T04:40:42.658Z,102326.02
2023-01-25T04:43:12.451Z,102325.33
2023-01-25T04:45:40.912Z,102326.31
2023-01-25T04:48:13.693Z,102323.87
2023-01-25T04:50:47.800Z,102327.65
2023-01-25T04:53:16.015Z,102328.83
2023-01-25T04:55:47.352Z,102326.39
2023-01-25T04:58:15.996Z,102324.65
2023-01-25T05:00:44.754Z,102321.53
2023-01-25T05:03:13.057Z,102324.97
2023-01-25T05:05:48.388Z,102332.20
2023-01-25T05:08:19.685Z,102331.16
2023-01-25T05:10:47.999Z,102331.16
2023-01-25T05:13:19.979Z,102329.41
2023-01-25T05:15:50.965Z,102332.88
2023-01-25T05:18:19.145Z,102335.64
2023-01-25T05:20:56.677Z,102341.16
2023-01-25T05:23:28.553Z,102341.84
2023-01-25T05:26:15.701Z,102338.76
2023-01-25T05:28:44.208Z,102343.77
2023-01-25T05:31:40.309Z,102346.71
2023-01-25T05:34:09.480Z,102346.73
2023-01-25T05:36:38.254Z,102344.84
2023-01-25T05:39:08.927Z,102343.98
2023-01-25T05:41:37.325Z,102337.41
2023-01-25T05:44:05.681Z,102339.63
2023-01-25T05:46:37.568Z,102334.25
2023-01-25T05:49:05.948Z,102328.11
2023-01-25T05:51:35.808Z,102327.81
2023-01-25T05:54:05.973Z,102325.85
2023-01-25T05:56:35.510Z,102323.58
2023-01-25T05:59:04.049Z,102324.30
2023-01-25T06:01:32.383Z,102321.73
2023-01-25T06:04:01.629Z,102321.76
2023-01-25T06:06:37.843Z,102318.64
2023-01-25T06:09:06.337Z,102322.23
2023-01-25T06:11:37.969Z,102322.79
2023-01-25T06:14:06.636Z,102324.71
2023-01-25T06:16:34.863Z,102325.41
2023-01-25T06:19:35.967Z,102328.01
2023-01-25T06:22:17.801Z,102329.58
2023-01-25T06:24:46.062Z,102330.46
2023-01-25T06:27:14.404Z,102325.27
2023-01-25T06:29:43.744Z,102324.55
2023-01-25T06:32:12.081Z,102323.68
2023-01-25T06:34:40.998Z,102322.81
2023-01-25T06:37:12.115Z,102323.48
2023-01-25T06:39:40.362Z,102322.09
2023-01-25T06:42:08.494Z,102324.35
2023-01-25T06:44:37.650Z,102325.73
2023-01-25T06:47:10.435Z,102318.80
2023-01-25T06:49:38.891Z,102319.66
2023-01-25T06:52:07.246Z,102322.79
2023-01-25T06:54:35.532Z,102326.44
2023-01-25T06:57:04.106Z,102327.69
2023-01-25T06:59:33.317Z,102324.77
2023-01-25T07:02:01.423Z,102319.80
2023-01-25T07:04:31.830Z,102320.33
2023-01-25T07:07:00.592Z,102317.05
2023-01-25T07:09:28.870Z,102317.91
2023-01-25T07:11:57.558Z,102317.95
2023-01-25T07:14:25.831Z,102314.36
2023-01-25T07:16:54.314Z,102312.65
2023-01-25T07:19:22.385Z,102310.27
2023-01-25T07:21:51.168Z,102306.85
2023-01-25T07:24:20.448Z,102304.45
2023-01-25T07:26:49.588Z,102302.76
2023-01-25T07:29:18.154Z,102302.89
2023-01-25T07:31:47.004Z,102306.42
2023-01-25T07:34:15.830Z,102308.56
2023-01-25T07:36:44.691Z,102310.23
2023-01-25T07:39:13.007Z,102307.37
2023-01-25T07:41:41.060Z,102305.73
2023-01-25T07:44:14.023Z,102299.13
2023-01-25T07:46:47.458Z,102299.27
2023-01-25T07:49:16.137Z,102300.44
2023-01-25T07:51:46.028Z,102302.83
2023-01-25T07:54:14.551Z,102301.98
2023-01-25T07:56:42.919Z,102302.02
2023-01-25T10:14:58.605Z,102254.00
2023-01-25T10:17:39.242Z,102254.66
2023-01-25T10:20:09.672Z,102248.41
2023-01-25T10:22:43.159Z,102243.73
2023-01-25T10:25:24.584Z,102245.29
2023-01-25T10:28:19.652Z,102238.38
2023-01-25T10:31:16.303Z,102229.01
2023-01-25T10:33:46.658Z,102225.71
2023-01-25T10:36:18.050Z,102218.09
2023-01-25T10:38:46.197Z,102214.48
2023-01-25T10:41:19.875Z,102207.73
2023-01-25T10:43:47.090Z,102202.23
2023-01-25T10:46:22.141Z,102204.06
2023-01-25T10:48:48.920Z,102200.86
2023-01-25T10:51:31.993Z,102199.07
2023-01-25T10:54:03.649Z,102192.64
2023-01-25T10:56:33.944Z,102194.29
2023-01-25T10:59:18.380Z,102192.33
2023-01-25T11:01:45.541Z,102189.33
2023-01-25T11:04:34.378Z,102180.13
2023-01-25T11:07:05.422Z,102183.28
2023-01-25T11:09:38.918Z,102180.75
2023-01-25T11:12:10.986Z,102176.83
2023-01-25T11:14:37.826Z,102174.80
2023-01-25T11:17:08.763Z,102172.29
2023-01-25T11:19:40.080Z,102172.02
2023-01-25T11:22:19.160Z,102166.73
2023-01-25T11:24:45.874Z,102163.88
2023-01-25T11:27:22.472Z,102160.84
2023-01-25T11:30:15.669Z,102159.84
2023-01-25T11:32:42.661Z,102154.00
2023-01-25T11:35:14.620Z,102155.08
2023-01-25T11:38:22.332Z,102157.52
2023-01-25T11:41:24.605Z,102150.45
2023-01-25T11:45:42.210Z,102150.10
2023-01-25T11:48:28.261Z,102143.81
2023-01-25T11:51:00.190Z,102145.54
2023-01-25T11:53:34.611Z,102145.39
2023-01-25T11:56:08.215Z,102145.21
2023-01-25T11:58:39.673Z,102138.96
2023-01-25T12:01:19.301Z,102134.83
2023-01-25T12:04:10.772Z,102136.89
2023-01-25T12:06:58.558Z,102136.23
2023-01-25T12:09:37.182Z,102142.28
2023-01-25T12:12:32.789Z,102138.67
2023-01-25T12:15:23.718Z,102133.84
2023-01-25T12:17:55.256Z,102126.93
2023-01-25T12:20:31.829Z,102127.30
2023-01-25T12:23:12.254Z,102130.27
2023-01-25T12:26:07.914Z,102131.69
2023-01-25T12:28:53.898Z,102129.11
2023-01-25T12:31:35.141Z,102126.52
2023-01-25T12:34:05.371Z,102129.11
2023-01-25T12:36:37.369Z,102127.17
2023-01-25T12:39:11.427Z,102121.48
2023-01-25T12:42:11.213Z,102121.83
2023-01-25T12:44:50.938Z,102123.23
2023-01-25T12:47:39.902Z,102124.08
2023-01-25T12:50:39.204Z,102122.34
2023-01-25T12:53:14.032Z,102120.29
2023-01-25T12:55:42.411Z,102121.74
2023-01-25T12:58:23.810Z,102121.96
2023-01-25T13:01:13.060Z,102120.23
2023-01-25T13:04:00.148Z,102122.30
2023-01-25T13:06:58.462Z,102119.73
2023-01-25T13:09:28.412Z,102119.91
2023-01-25T13:11:56.957Z,102121.46
2023-01-25T13:14:29.541Z,102116.30
2023-01-25T13:17:23.676Z,102117.83
2023-01-25T13:19:53.920Z,102115.23
2023-01-25T13:22:43.932Z,102116.67
2023-01-25T13:25:18.460Z,102115.34
2023-01-25T13:27:46.836Z,102111.75
2023-01-25T13:30:29.148Z,102112.09
2023-01-25T13:33:06.632Z,102109.50
2023-01-25T13:35:40.256Z,102106.89
2023-01-25T13:38:17.628Z,102099.38
2023-01-25T13:40:46.510Z,102094.07
2023-01-25T16:12:15.827Z,102037.10
2023-01-25T16:14:45.323Z,102034.39
2023-01-25T16:17:20.697Z,102029.94
2023-01-25T16:19:49.146Z,102030.83
2023-01-25T16:22:18.149Z,102026.56
2023-01-25T16:24:46.728Z,102028.15
2023-01-25T16:27:16.963Z,102027.50
2023-01-25T16:29:45.323Z,102030.46
2023-01-25T16:32:13.784Z,102022.90
2023-01-25T16:34:42.055Z,102023.85
2023-01-25T16:37:17.016Z,102023.06
2023-01-25T16:39:45.908Z,102023.44
2023-01-25T16:42:14.185Z,102021.76
2023-01-25T16:44:42.673Z,102018.25
2023-01-25T16:47:13.753Z,102019.01
2023-01-25T16:49:41.987Z,102019.08
2023-01-25T16:52:12.062Z,102017.20
2023-01-25T16:54:40.178Z,102019.63
2023-01-25T16:57:19.998Z,102018.59
2023-01-25T16:59:48.868Z,102015.33
2023-01-25T17:02:17.137Z,102013.80
2023-01-25T17:04:45.336Z,102020.92
2023-01-25T17:07:13.949Z,102017.64
2023-01-25T17:09:42.124Z,102018.64
2023-01-25T17:12:12.854Z,102021.85
2023-01-25T17:14:41.341Z,102017.27
2023-01-25T17:17:10.032Z,102017.31
2023-01-25T17:19:39.168Z,102017.37
2023-01-25T17:22:07.807Z,102016.43
2023-01-25T17:24:36.615Z,102019.50
2023-01-25T17:27:05.407Z,102018.63
2023-01-25T17:29:33.863Z,102017.59
2023-01-25T17:32:02.451Z,102010.36
2023-01-25T17:34:30.581Z,102005.23
2023-01-25T17:36:59.035Z,102002.01
2023-01-25T17:39:27.384Z,101996.02
2023-01-25T17:41:56.104Z,101996.28
2023-01-25T17:44:25.166Z,101997.58
2023-01-25T17:46:53.851Z,101996.63
2023-01-25T17:49:22.785Z,101999.61
2023-01-25T17:51:51.121Z,101998.45
2023-01-25T17:54:19.789Z,101997.06
2023-01-25T17:56:48.085Z,101998.10
2023-01-25T17:59:18.625Z,101994.83
2023-01-25T18:01:46.832Z,101988.81
2023-01-25T18:04:17.752Z,101991.04
2023-01-25T18:06:50.054Z,101998.44
2023-01-25T18:09:19.066Z,101994.64
2023-01-25T18:11:48.118Z,101997.89
2023-01-25T18:14:17.093Z,102000.98
2023-01-25T18:16:46.035Z,102003.05
2023-01-25T18:19:14.356Z,102001.67
2023-01-25T18:21:44.881Z,102004.58
2023-01-25T18:24:33.740Z,102006.80
2023-01-25T18:27:19.625Z,102009.83
2023-01-25T18:30:05.283Z,102012.64
2023-01-25T18:32:33.756Z,102016.67
2023-01-25T18:35:02.523Z,102018.13
2023-01-25T18:37:35.922Z,102014.93
2023-01-25T18:40:05.899Z,102013.65
2023-01-25T18:42:35.712Z,102014.80
2023-01-25T18:45:04.930Z,102017.19
2023-01-25T18:47:33.134Z,102016.34
2023-01-25T18:50:01.358Z,102016.41
2023-01-25T18:52:29.947Z,102010.41
2023-01-25T18:54:58.321Z,102008.53
2023-01-25T18:57:26.723Z,102006.19
2023-01-25T18:59:55.386Z,102011.06
2023-01-25T19:02:23.860Z,102008.70
2023-01-25T19:04:52.372Z,102006.13
2023-01-25T19:07:22.163Z,102002.02
2023-01-25T19:09:50.539Z,101998.94
2023-01-25T19:12:18.832Z,102001.03
2023-01-25T19:14:47.197Z,102001.40
2023-01-25T19:17:15.781Z,102001.95
2023-01-25T19:19:44.273Z,102002.66
2023-01-25T19:22:12.501Z,102000.39
2023-01-25T19:24:44.401Z,101999.36
2023-01-25T19:27:12.780Z,101997.96
2023-01-25T19:29:41.934Z,101994.50
2023-01-25T19:32:11.484Z,101992.09
2023-01-25T19:34:39.850Z,101994.00
2023-01-25T19:37:08.462Z,101989.70
2023-01-25T19:39:37.180Z,101988.71
2023-01-25T19:42:06.861Z,101985.11
2023-01-25T19:44:35.557Z,101984.27
2023-01-25T19:47:03.855Z,101990.84
2023-01-25T19:49:32.360Z,101987.87
2023-01-25T19:52:00.566Z,101988.50
2023-01-25T19:54:28.756Z,101986.20
2023-01-25T19:59:25.027Z,101979.66
2023-01-25T20:01:53.551Z,101980.98
2023-01-25T20:04:23.087Z,101975.89
2023-01-25T20:06:51.831Z,101974.80
2023-01-25T20:09:25.025Z,101974.31
2023-01-25T20:11:55.581Z,101972.46
2023-01-25T20:14:23.948Z,101965.58
2023-01-25T20:16:52.943Z,101968.42
2023-01-25T20:19:24.679Z,101965.42
2023-01-25T20:21:52.800Z,101967.92
2023-01-25T20:24:22.432Z,101969.36
2023-01-25T20:26:51.659Z,101965.64
2023-01-25T20:29:21.578Z,101971.91
2023-01-25T20:31:50.252Z,101971.42
2023-01-25T20:34:20.963Z,101974.56
2023-01-25T20:36:50.133Z,101974.55
2023-01-25T20:39:21.027Z,101973.34
2023-01-25T20:41:53.641Z,101972.81
2023-01-25T20:44:22.300Z,101972.10
2023-01-25T20:46:52.796Z,101970.73
2023-01-25T20:49:21.384Z,101973.30
2023-01-25T20:51:49.989Z,101972.27
2023-01-25T20:54:20.517Z,101971.72
2023-01-25T20:56:50.485Z,101967.70
2023-01-25T20:59:19.654Z,101964.91
2023-01-25T21:01:48.054Z,101960.35
2023-01-25T21:04:16.547Z,101958.26
2023-01-25T21:06:45.284Z,101956.52
2023-01-25T21:09:13.579Z,101956.91
2023-01-25T21:11:42.035Z,101954.02
2023-01-25T21:14:10.319Z,101954.77
2023-01-25T21:16:38.634Z,101954.63
2023-01-25T21:19:07.597Z,101955.88
2023-01-25T21:21:35.989Z,101954.35
2023-01-25T21:24:06.029Z,101950.59
2023-01-25T21:26:35.622Z,101948.36
2023-01-25T21:29:04.288Z,101952.51
2023-01-25T21:31:36.198Z,101951.81
2023-01-25T21:34:09.328Z,101947.00
2023-01-25T21:36:37.731Z,101944.09
2023-01-25T21:39:06.506Z,101938.90
2023-01-25T21:41:34.869Z,101931.67
2023-01-25T21:44:21.734Z,101931.72
2023-01-25T21:47:16.367Z,101928.30
2023-01-25T21:49:56.911Z,101924.18
2023-01-25T21:52:25.109Z,101924.30
2023-01-25T21:54:53.253Z,101919.58
2023-01-25T22:27:52.545Z,101895.13
2023-01-25T22:30:20.949Z,101898.34
2023-01-25T22:32:49.562Z,101896.45
2023-01-25T22:35:17.866Z,101891.24
2023-01-25T22:37:46.143Z,101890.87
2023-01-25T22:40:14.601Z,101887.55
2023-01-25T22:42:42.898Z,101886.30
2023-01-25T22:45:11.664Z,101879.65
2023-01-25T22:47:42.092Z,101876.27
2023-01-25T22:50:11.635Z,101876.66
2023-01-25T22:52:40.384Z,101874.63
2023-01-25T22:55:11.023Z,101875.39
2023-01-25T22:57:39.399Z,101870.57
2023-01-25T23:00:09.404Z,101870.04
2023-01-25T23:02:41.175Z,101867.83
2023-01-25T23:05:09.535Z,101867.15
2023-01-25T23:07:37.845Z,101860.81
2023-01-25T23:10:06.718Z,101860.65
2023-01-25T23:12:35.916Z,101859.95
2023-01-25T23:15:07.678Z,101861.52
2023-01-25T23:17:55.217Z,101859.39
2023-01-25T23:20:23.922Z,101859.77
2023-01-25T23:22:52.481Z,101860.19
2023-01-25T23:25:20.750Z,101862.66
2023-01-25T23:27:49.539Z,101859.98
2023-01-25T23:30:18.541Z,101857.16
2023-01-25T23:32:49.432Z,101859.19
2023-01-25T23:35:18.814Z,101849.30
2023-01-25T23:37:47.459Z,101845.80
2023-01-25T23:40:16.352Z,101845.83
2023-01-25T23:42:44.634Z,101846.23
2023-01-25T23:45:14.848Z,101845.47
2023-01-25T23:47:43.244Z,101842.39
2023-01-25T23:50:12.181Z,101843.81
2023-01-25T23:52:40.498Z,101844.38
2023-01-25T23:55:09.292Z,101841.69
2023-01-25T23:57:37.331Z,101837.09
